sensor_id;sensor_type;location;lat;lon;timestamp;P1;durP1;ratioP1;P2;durP2;ratioP2
3667;SDS011;24099;47.102;15.440;2023-12-22T00:00:45;1.35;;;0.20;;
3667;SDS011;24099;47.102;15.440;2023-12-22T00:03:14;0.20;;;0.20;;
3667;SDS011;24099;47.102;15.440;2023-12-22T00:05:41;0.20;;;0.20;;
3667;SDS011;24099;47.102;15.440;2023-12-22T00:08:09;0.28;;;0.28;;
3667;SDS011;24099;47.102;15.440;2023-12-22T00:10:36;0.75;;;0.40;;
3667;SDS011;24099;47.102;15.440;2023-12-22T00:13:04;0.28;;;0.28;;
3667;SDS011;24099;47.102;15.440;2023-12-22T00:15:32;0.50;;;0.50;;
3667;SDS011;24099;47.102;15.440;2023-12-22T00:18:00;0.20;;;0.20;;
3667;SDS011;24099;47.102;15.440;2023-12-22T00:20:28;0.32;;;0.32;;
3667;SDS011;24099;47.102;15.440;2023-12-22T00:22:55;0.30;;;0.30;;
3667;SDS011;24099;47.102;15.440;2023-12-22T00:25:23;1.08;;;0.47;;
3667;SDS011;24099;47.102;15.440;2023-12-22T00:27:50;0.30;;;0.30;;
3667;SDS011;24099;47.102;15.440;2023-12-22T00:30:18;0.60;;;0.30;;
3667;SDS011;24099;47.102;15.440;2023-12-22T00:32:47;0.70;;;0.20;;
3667;SDS011;24099;47.102;15.440;2023-12-22T00:35:14;0.30;;;0.30;;
3667;SDS011;24099;47.102;15.440;2023-12-22T00:37:42;0.20;;;0.20;;
3667;SDS011;24099;47.102;15.440;2023-12-22T00:40:10;0.30;;;0.30;;
3667;SDS011;24099;47.102;15.440;2023-12-22T00:42:37;0.30;;;0.30;;
3667;SDS011;24099;47.102;15.440;2023-12-22T00:45:05;0.30;;;0.30;;
3667;SDS011;24099;47.102;15.440;2023-12-22T00:47:33;0.10;;;0.10;;
3667;SDS011;24099;47.102;15.440;2023-12-22T00:50:02;0.20;;;0.20;;
3667;SDS011;24099;47.102;15.440;2023-12-22T00:52:31;0.10;;;0.10;;
3667;SDS011;24099;47.102;15.440;2023-12-22T00:54:59;0.20;;;0.20;;
3667;SDS011;24099;47.102;15.440;2023-12-22T00:57:26;0.20;;;0.20;;
3667;SDS011;24099;47.102;15.440;2023-12-22T00:59:55;0.20;;;0.20;;
3667;SDS011;24099;47.102;15.440;2023-12-22T01:02:23;0.10;;;0.10;;
3667;SDS011;24099;47.102;15.440;2023-12-22T01:04:50;0.40;;;0.20;;
3667;SDS011;24099;47.102;15.440;2023-12-22T01:07:19;0.10;;;0.10;;
3667;SDS011;24099;47.102;15.440;2023-12-22T01:09:47;0.20;;;0.20;;
3667;SDS011;24099;47.102;15.440;2023-12-22T01:12:14;0.10;;;0.10;;
3667;SDS011;24099;47.102;15.440;2023-12-22T01:14:42;1.85;;;0.20;;
3667;SDS011;24099;47.102;15.440;2023-12-22T01:17:10;0.20;;;0.20;;
3667;SDS011;24099;47.102;15.440;2023-12-22T01:19:38;0.17;;;0.17;;
3667;SDS011;24099;47.102;15.440;2023-12-22T01:22:05;0.17;;;0.17;;
3667;SDS011;24099;47.102;15.440;2023-12-22T01:24:34;0.20;;;0.20;;
3667;SDS011;24099;47.102;15.440;2023-12-22T01:27:04;0.20;;;0.20;;
3667;SDS011;24099;47.102;15.440;2023-12-22T01:29:32;0.25;;;0.25;;
3667;SDS011;24099;47.102;15.440;2023-12-22T01:32:00;0.10;;;0.10;;
3667;SDS011;24099;47.102;15.440;2023-12-22T01:34:27;0.20;;;0.20;;
3667;SDS011;24099;47.102;15.440;2023-12-22T01:36:55;0.20;;;0.20;;
3667;SDS011;24099;47.102;15.440;2023-12-22T01:39:22;0.22;;;0.20;;
3667;SDS011;24099;47.102;15.440;2023-12-22T01:41:51;0.20;;;0.20;;
3667;SDS011;24099;47.102;15.440;2023-12-22T01:44:19;0.20;;;0.20;;
3667;SDS011;24099;47.102;15.440;2023-12-22T01:46:46;0.10;;;0.10;;
3667;SDS011;24099;47.102;15.440;2023-12-22T01:49:15;0.10;;;0.10;;
3667;SDS011;24099;47.102;15.440;2023-12-22T01:51:43;1.83;;;0.30;;
3667;SDS011;24099;47.102;15.440;2023-12-22T01:54:11;0.30;;;0.30;;
3667;SDS011;24099;47.102;15.440;2023-12-22T01:56:40;0.20;;;0.20;;
3667;SDS011;24099;47.102;15.440;2023-12-22T01:59:09;1.40;;;0.65;;
3667;SDS011;24099;47.102;15.440;2023-12-22T02:01:38;0.20;;;0.20;;
3667;SDS011;24099;47.102;15.440;2023-12-22T02:04:06;0.17;;;0.17;;
3667;SDS011;24099;47.102;15.440;2023-12-22T02:06:33;0.20;;;0.20;;
3667;SDS011;24099;47.102;15.440;2023-12-22T02:09:02;0.10;;;0.10;;
3667;SDS011;24099;47.102;15.440;2023-12-22T02:11:30;0.43;;;0.20;;
3667;SDS011;24099;47.102;15.440;2023-12-22T02:13:58;0.45;;;0.20;;
3667;SDS011;24099;47.102;15.440;2023-12-22T02:16:29;0.75;;;0.40;;
3667;SDS011;24099;47.102;15.440;2023-12-22T02:19:04;0.63;;;0.20;;
3667;SDS011;24099;47.102;15.440;2023-12-22T02:26:59;0.20;;;0.20;;
3667;SDS011;24099;47.102;15.440;2023-12-22T02:29:32;0.10;;;0.10;;
3667;SDS011;24099;47.102;15.440;2023-12-22T02:32:05;0.13;;;0.13;;
3667;SDS011;24099;47.102;15.440;2023-12-22T02:34:38;0.10;;;0.10;;
3667;SDS011;24099;47.102;15.440;2023-12-22T02:37:10;0.10;;;0.10;;
3667;SDS011;24099;47.102;15.440;2023-12-22T02:39:40;0.10;;;0.10;;
3667;SDS011;24099;47.102;15.440;2023-12-22T02:42:08;0.80;;;0.20;;
3667;SDS011;24099;47.102;15.440;2023-12-22T02:44:37;0.10;;;0.10;;
3667;SDS011;24099;47.102;15.440;2023-12-22T02:47:05;0.20;;;0.20;;
3667;SDS011;24099;47.102;15.440;2023-12-22T02:49:33;0.10;;;0.10;;
3667;SDS011;24099;47.102;15.440;2023-12-22T02:52:00;0.10;;;0.10;;
3667;SDS011;24099;47.102;15.440;2023-12-22T02:54:28;0.17;;;0.17;;
3667;SDS011;24099;47.102;15.440;2023-12-22T02:56:58;0.10;;;0.10;;
3667;SDS011;24099;47.102;15.440;2023-12-22T02:59:26;0.10;;;0.10;;
3667;SDS011;24099;47.102;15.440;2023-12-22T03:01:53;0.10;;;0.10;;
3667;SDS011;24099;47.102;15.440;2023-12-22T03:04:21;0.20;;;0.20;;
3667;SDS011;24099;47.102;15.440;2023-12-22T03:06:48;0.30;;;0.30;;
3667;SDS011;24099;47.102;15.440;2023-12-22T03:09:16;0.30;;;0.30;;
3667;SDS011;24099;47.102;15.440;2023-12-22T03:11:44;0.20;;;0.20;;
3667;SDS011;24099;47.102;15.440;2023-12-22T03:14:12;0.20;;;0.20;;
3667;SDS011;24099;47.102;15.440;2023-12-22T03:16:40;0.10;;;0.10;;
3667;SDS011;24099;47.102;15.440;2023-12-22T03:19:08;0.10;;;0.10;;
3667;SDS011;24099;47.102;15.440;2023-12-22T03:21:35;0.20;;;0.20;;
3667;SDS011;24099;47.102;15.440;2023-12-22T03:24:04;0.10;;;0.10;;
3667;SDS011;24099;47.102;15.440;2023-12-22T03:26:32;0.20;;;0.20;;
3667;SDS011;24099;47.102;15.440;2023-12-22T03:28:59;1.05;;;0.40;;
3667;SDS011;24099;47.102;15.440;2023-12-22T03:31:28;0.20;;;0.20;;
3667;SDS011;24099;47.102;15.440;2023-12-22T03:33:56;0.20;;;0.20;;
3667;SDS011;24099;47.102;15.440;2023-12-22T03:36:24;0.45;;;0.20;;
3667;SDS011;24099;47.102;15.440;2023-12-22T03:38:51;0.20;;;0.20;;
3667;SDS011;24099;47.102;15.440;2023-12-22T03:41:19;0.20;;;0.20;;
3667;SDS011;24099;47.102;15.440;2023-12-22T03:43:46;0.30;;;0.30;;
3667;SDS011;24099;47.102;15.440;2023-12-22T03:46:14;0.20;;;0.20;;
3667;SDS011;24099;47.102;15.440;2023-12-22T03:48:43;0.10;;;0.10;;
3667;SDS011;24099;47.102;15.440;2023-12-22T03:51:11;0.20;;;0.20;;
3667;SDS011;24099;47.102;15.440;2023-12-22T03:53:40;0.20;;;0.20;;
3667;SDS011;24099;47.102;15.440;2023-12-22T03:56:07;0.10;;;0.10;;
3667;SDS011;24099;47.102;15.440;2023-12-22T03:58:35;0.20;;;0.20;;
3667;SDS011;24099;47.102;15.440;2023-12-22T04:01:04;0.80;;;0.35;;
3667;SDS011;24099;47.102;15.440;2023-12-22T04:03:32;0.20;;;0.20;;
3667;SDS011;24099;47.102;15.440;2023-12-22T04:06:02;0.10;;;0.10;;
3667;SDS011;24099;47.102;15.440;2023-12-22T04:08:30;0.30;;;0.30;;
3667;SDS011;24099;47.102;15.440;2023-12-22T04:10:59;0.15;;;0.15;;
3667;SDS011;24099;47.102;15.440;2023-12-22T04:13:26;0.25;;;0.25;;
3667;SDS011;24099;47.102;15.440;2023-12-22T04:15:54;0.20;;;0.20;;
3667;SDS011;24099;47.102;15.440;2023-12-22T04:18:21;0.40;;;0.38;;
3667;SDS011;24099;47.102;15.440;2023-12-22T04:20:49;2.70;;;0.30;;
3667;SDS011;24099;47.102;15.440;2023-12-22T04:23:20;3.72;;;0.30;;
3667;SDS011;24099;47.102;15.440;2023-12-22T04:25:47;0.20;;;0.20;;
3667;SDS011;24099;47.102;15.440;2023-12-22T04:28:15;0.43;;;0.20;;
3667;SDS011;24099;47.102;15.440;2023-12-22T04:30:43;0.75;;;0.25;;
3667;SDS011;24099;47.102;15.440;2023-12-22T04:33:11;0.13;;;0.13;;
3667;SDS011;24099;47.102;15.440;2023-12-22T04:35:38;0.80;;;0.30;;
3667;SDS011;24099;47.102;15.440;2023-12-22T04:38:06;0.13;;;0.13;;
3667;SDS011;24099;47.102;15.440;2023-12-22T04:40:35;0.13;;;0.13;;
3667;SDS011;24099;47.102;15.440;2023-12-22T04:43:03;0.10;;;0.10;;
3667;SDS011;24099;47.102;15.440;2023-12-22T04:45:30;0.20;;;0.20;;
3667;SDS011;24099;47.102;15.440;2023-12-22T04:47:58;0.10;;;0.10;;
3667;SDS011;24099;47.102;15.440;2023-12-22T04:50:25;0.68;;;0.40;;
3667;SDS011;24099;47.102;15.440;2023-12-22T04:52:53;0.38;;;0.38;;
3667;SDS011;24099;47.102;15.440;2023-12-22T04:55:20;0.20;;;0.20;;
3667;SDS011;24099;47.102;15.440;2023-12-22T04:57:49;0.20;;;0.20;;
3667;SDS011;24099;47.102;15.440;2023-12-22T05:00:17;0.30;;;0.30;;
3667;SDS011;24099;47.102;15.440;2023-12-22T05:02:44;0.20;;;0.20;;
3667;SDS011;24099;47.102;15.440;2023-12-22T05:05:12;0.13;;;0.13;;
3667;SDS011;24099;47.102;15.440;2023-12-22T05:07:40;0.15;;;0.15;;
3667;SDS011;24099;47.102;15.440;2023-12-22T05:10:07;0.22;;;0.22;;
3667;SDS011;24099;47.102;15.440;2023-12-22T05:12:35;0.20;;;0.20;;
3667;SDS011;24099;47.102;15.440;2023-12-22T05:15:04;0.20;;;0.20;;
3667;SDS011;24099;47.102;15.440;2023-12-22T05:17:33;0.10;;;0.10;;
3667;SDS011;24099;47.102;15.440;2023-12-22T05:20:00;0.20;;;0.20;;
3667;SDS011;24099;47.102;15.440;2023-12-22T05:22:28;0.20;;;0.20;;
3667;SDS011;24099;47.102;15.440;2023-12-22T05:24:57;0.20;;;0.20;;
3667;SDS011;24099;47.102;15.440;2023-12-22T05:27:26;0.10;;;0.10;;
3667;SDS011;24099;47.102;15.440;2023-12-22T05:29:53;0.20;;;0.20;;
3667;SDS011;24099;47.102;15.440;2023-12-22T05:32:27;4.47;;;0.40;;
3667;SDS011;24099;47.102;15.440;2023-12-22T05:34:55;0.20;;;0.20;;
3667;SDS011;24099;47.102;15.440;2023-12-22T05:37:22;5.18;;;0.20;;
3667;SDS011;24099;47.102;15.440;2023-12-22T05:39:50;0.20;;;0.20;;
3667;SDS011;24099;47.102;15.440;2023-12-22T05:42:17;0.22;;;0.22;;
3667;SDS011;24099;47.102;15.440;2023-12-22T05:44:46;0.10;;;0.10;;
3667;SDS011;24099;47.102;15.440;2023-12-22T05:47:15;0.13;;;0.13;;
3667;SDS011;24099;47.102;15.440;2023-12-22T05:49:44;5.68;;;0.30;;
3667;SDS011;24099;47.102;15.440;2023-12-22T05:52:11;0.20;;;0.20;;
3667;SDS011;24099;47.102;15.440;2023-12-22T05:54:39;0.20;;;0.20;;
3667;SDS011;24099;47.102;15.440;2023-12-22T05:57:07;0.20;;;0.20;;
3667;SDS011;24099;47.102;15.440;2023-12-22T05:59:34;0.10;;;0.10;;
3667;SDS011;24099;47.102;15.440;2023-12-22T06:02:02;0.30;;;0.30;;
3667;SDS011;24099;47.102;15.440;2023-12-22T06:04:30;0.20;;;0.20;;
3667;SDS011;24099;47.102;15.440;2023-12-22T06:06:59;0.20;;;0.20;;
3667;SDS011;24099;47.102;15.440;2023-12-22T06:09:26;0.20;;;0.20;;
3667;SDS011;24099;47.102;15.440;2023-12-22T06:11:54;0.10;;;0.10;;
3667;SDS011;24099;47.102;15.440;2023-12-22T06:14:23;0.75;;;0.30;;
3667;SDS011;24099;47.102;15.440;2023-12-22T06:16:50;0.45;;;0.30;;
3667;SDS011;24099;47.102;15.440;2023-12-22T06:19:18;0.20;;;0.20;;
3667;SDS011;24099;47.102;15.440;2023-12-22T06:21:47;0.32;;;0.32;;
3667;SDS011;24099;47.102;15.440;2023-12-22T06:24:16;2.38;;;0.47;;
3667;SDS011;24099;47.102;15.440;2023-12-22T06:26:43;0.65;;;0.50;;
3667;SDS011;24099;47.102;15.440;2023-12-22T06:29:11;0.68;;;0.55;;
3667;SDS011;24099;47.102;15.440;2023-12-22T06:31:38;1.90;;;0.90;;
3667;SDS011;24099;47.102;15.440;2023-12-22T06:34:06;2.90;;;1.15;;
3667;SDS011;24099;47.102;15.440;2023-12-22T06:36:33;0.28;;;0.28;;
3667;SDS011;24099;47.102;15.440;2023-12-22T06:39:01;0.57;;;0.40;;
3667;SDS011;24099;47.102;15.440;2023-12-22T06:41:30;0.30;;;0.30;;
3667;SDS011;24099;47.102;15.440;2023-12-22T06:43:58;0.55;;;0.40;;
3667;SDS011;24099;47.102;15.440;2023-12-22T06:46:26;0.65;;;0.50;;
3667;SDS011;24099;47.102;15.440;2023-12-22T06:48:55;0.35;;;0.35;;
3667;SDS011;24099;47.102;15.440;2023-12-22T06:51:23;0.40;;;0.40;;
3667;SDS011;24099;47.102;15.440;2023-12-22T06:53:52;0.98;;;0.20;;
3667;SDS011;24099;47.102;15.440;2023-12-22T06:56:21;0.20;;;0.20;;
3667;SDS011;24099;47.102;15.440;2023-12-22T06:58:52;1.60;;;0.60;;
3667;SDS011;24099;47.102;15.440;2023-12-22T07:01:22;0.20;;;0.20;;
3667;SDS011;24099;47.102;15.440;2023-12-22T07:03:52;0.30;;;0.30;;
3667;SDS011;24099;47.102;15.440;2023-12-22T07:06:19;0.20;;;0.20;;
3667;SDS011;24099;47.102;15.440;2023-12-22T07:08:56;0.20;;;0.20;;
3667;SDS011;24099;47.102;15.440;2023-12-22T07:11:39;0.45;;;0.30;;
3667;SDS011;24099;47.102;15.440;2023-12-22T07:14:09;0.47;;;0.30;;
3667;SDS011;24099;47.102;15.440;2023-12-22T07:16:36;1.30;;;0.40;;
3667;SDS011;24099;47.102;15.440;2023-12-22T07:19:04;1.23;;;0.40;;
3667;SDS011;24099;47.102;15.440;2023-12-22T07:21:32;0.20;;;0.20;;
3667;SDS011;24099;47.102;15.440;2023-12-22T07:24:00;0.20;;;0.20;;
3667;SDS011;24099;47.102;15.440;2023-12-22T07:26:27;0.20;;;0.20;;
3667;SDS011;24099;47.102;15.440;2023-12-22T07:28:55;0.30;;;0.30;;
3667;SDS011;24099;47.102;15.440;2023-12-22T07:31:25;0.43;;;0.43;;
3667;SDS011;24099;47.102;15.440;2023-12-22T07:33:52;0.52;;;0.52;;
3667;SDS011;24099;47.102;15.440;2023-12-22T07:36:20;0.30;;;0.30;;
3667;SDS011;24099;47.102;15.440;2023-12-22T07:38:47;0.20;;;0.20;;
3667;SDS011;24099;47.102;15.440;2023-12-22T07:41:15;0.30;;;0.30;;
3667;SDS011;24099;47.102;15.440;2023-12-22T07:43:42;0.30;;;0.30;;
3667;SDS011;24099;47.102;15.440;2023-12-22T07:46:16;0.63;;;0.30;;
3667;SDS011;24099;47.102;15.440;2023-12-22T07:48:45;0.28;;;0.28;;
3667;SDS011;24099;47.102;15.440;2023-12-22T07:51:13;0.32;;;0.32;;
3667;SDS011;24099;47.102;15.440;2023-12-22T07:53:40;0.30;;;0.30;;
3667;SDS011;24099;47.102;15.440;2023-12-22T07:56:08;0.32;;;0.32;;
3667;SDS011;24099;47.102;15.440;2023-12-22T07:58:36;0.60;;;0.45;;
3667;SDS011;24099;47.102;15.440;2023-12-22T08:01:04;0.20;;;0.20;;
3667;SDS011;24099;47.102;15.440;2023-12-22T08:03:32;0.40;;;0.40;;
3667;SDS011;24099;47.102;15.440;2023-12-22T08:06:01;0.20;;;0.20;;
3667;SDS011;24099;47.102;15.440;2023-12-22T08:08:28;0.90;;;0.40;;
3667;SDS011;24099;47.102;15.440;2023-12-22T08:10:58;0.55;;;0.30;;
3667;SDS011;24099;47.102;15.440;2023-12-22T08:13:26;0.35;;;0.35;;
3667;SDS011;24099;47.102;15.440;2023-12-22T08:15:53;0.43;;;0.43;;
3667;SDS011;24099;47.102;15.440;2023-12-22T08:18:21;0.30;;;0.30;;
3667;SDS011;24099;47.102;15.440;2023-12-22T08:20:48;0.32;;;0.22;;
3667;SDS011;24099;47.102;15.440;2023-12-22T08:23:17;0.65;;;0.47;;
3667;SDS011;24099;47.102;15.440;2023-12-22T08:25:46;0.30;;;0.30;;
3667;SDS011;24099;47.102;15.440;2023-12-22T08:28:14;0.75;;;0.60;;
3667;SDS011;24099;47.102;15.440;2023-12-22T08:30:42;0.47;;;0.40;;
3667;SDS011;24099;47.102;15.440;2023-12-22T08:33:09;0.70;;;0.60;;
3667;SDS011;24099;47.102;15.440;2023-12-22T08:35:38;1.17;;;0.70;;
3667;SDS011;24099;47.102;15.440;2023-12-22T08:38:06;1.33;;;0.88;;
3667;SDS011;24099;47.102;15.440;2023-12-22T08:40:35;1.00;;;0.70;;
3667;SDS011;24099;47.102;15.440;2023-12-22T08:43:03;2.05;;;1.10;;
3667;SDS011;24099;47.102;15.440;2023-12-22T08:45:31;0.60;;;0.60;;
3667;SDS011;24099;47.102;15.440;2023-12-22T08:47:59;1.83;;;0.75;;
3667;SDS011;24099;47.102;15.440;2023-12-22T08:50:27;0.68;;;0.60;;
3667;SDS011;24099;47.102;15.440;2023-12-22T08:52:55;1.70;;;1.00;;
3667;SDS011;24099;47.102;15.440;2023-12-22T08:55:22;0.80;;;0.80;;
3667;SDS011;24099;47.102;15.440;2023-12-22T08:57:51;1.08;;;0.60;;
3667;SDS011;24099;47.102;15.440;2023-12-22T09:00:19;0.60;;;0.40;;
3667;SDS011;24099;47.102;15.440;2023-12-22T09:02:47;1.38;;;1.20;;
3667;SDS011;24099;47.102;15.440;2023-12-22T09:05:15;0.98;;;0.80;;
3667;SDS011;24099;47.102;15.440;2023-12-22T09:07:43;0.85;;;0.75;;
3667;SDS011;24099;47.102;15.440;2023-12-22T09:10:11;0.40;;;0.40;;
3667;SDS011;24099;47.102;15.440;2023-12-22T09:12:38;0.88;;;0.47;;
3667;SDS011;24099;47.102;15.440;2023-12-22T09:15:09;0.45;;;0.45;;
3667;SDS011;24099;47.102;15.440;2023-12-22T09:17:36;0.52;;;0.52;;
3667;SDS011;24099;47.102;15.440;2023-12-22T09:20:04;2.85;;;2.35;;
3667;SDS011;24099;47.102;15.440;2023-12-22T09:22:33;1.88;;;1.45;;
3667;SDS011;24099;47.102;15.440;2023-12-22T09:25:00;1.48;;;0.93;;
3667;SDS011;24099;47.102;15.440;2023-12-22T09:27:28;0.85;;;0.55;;
3667;SDS011;24099;47.102;15.440;2023-12-22T09:29:56;0.70;;;0.57;;
3667;SDS011;24099;47.102;15.440;2023-12-22T09:32:25;0.50;;;0.50;;
3667;SDS011;24099;47.102;15.440;2023-12-22T09:34:52;0.38;;;0.38;;
3667;SDS011;24099;47.102;15.440;2023-12-22T09:37:24;0.80;;;0.80;;
3667;SDS011;24099;47.102;15.440;2023-12-22T09:39:51;0.30;;;0.30;;
3667;SDS011;24099;47.102;15.440;2023-12-22T09:42:19;0.93;;;0.50;;
3667;SDS011;24099;47.102;15.440;2023-12-22T09:44:50;0.70;;;0.55;;
3667;SDS011;24099;47.102;15.440;2023-12-22T09:47:22;0.40;;;0.40;;
3667;SDS011;24099;47.102;15.440;2023-12-22T09:49:54;0.82;;;0.70;;
3667;SDS011;24099;47.102;15.440;2023-12-22T09:52:23;1.45;;;0.82;;
3667;SDS011;24099;47.102;15.440;2023-12-22T09:54:51;1.15;;;0.80;;
3667;SDS011;24099;47.102;15.440;2023-12-22T09:57:22;0.57;;;0.57;;
3667;SDS011;24099;47.102;15.440;2023-12-22T09:59:52;0.40;;;0.40;;
3667;SDS011;24099;47.102;15.440;2023-12-22T10:02:20;1.20;;;0.70;;
3667;SDS011;24099;47.102;15.440;2023-12-22T10:04:51;0.68;;;0.60;;
3667;SDS011;24099;47.102;15.440;2023-12-22T10:07:19;0.70;;;0.70;;
3667;SDS011;24099;47.102;15.440;2023-12-22T10:09:48;0.70;;;0.70;;
3667;SDS011;24099;47.102;15.440;2023-12-22T10:12:16;1.02;;;0.80;;
3667;SDS011;24099;47.102;15.440;2023-12-22T10:14:45;1.10;;;0.80;;
3667;SDS011;24099;47.102;15.440;2023-12-22T10:17:14;1.92;;;0.80;;
3667;SDS011;24099;47.102;15.440;2023-12-22T10:19:43;0.80;;;0.80;;
3667;SDS011;24099;47.102;15.440;2023-12-22T10:22:11;1.85;;;0.70;;
3667;SDS011;24099;47.102;15.440;2023-12-22T10:24:39;2.35;;;0.90;;
3667;SDS011;24099;47.102;15.440;2023-12-22T10:27:09;3.85;;;0.98;;
3667;SDS011;24099;47.102;15.440;2023-12-22T10:29:37;3.13;;;1.98;;
3667;SDS011;24099;47.102;15.440;2023-12-22T10:32:05;1.42;;;1.10;;
3667;SDS011;24099;47.102;15.440;2023-12-22T10:34:34;1.17;;;0.80;;
3667;SDS011;24099;47.102;15.440;2023-12-22T10:37:01;2.30;;;0.90;;
3667;SDS011;24099;47.102;15.440;2023-12-22T10:39:31;1.10;;;1.00;;
3667;SDS011;24099;47.102;15.440;2023-12-22T10:42:02;1.10;;;0.82;;
3667;SDS011;24099;47.102;15.440;2023-12-22T10:44:30;1.65;;;1.20;;
3667;SDS011;24099;47.102;15.440;2023-12-22T10:46:57;5.55;;;0.90;;
3667;SDS011;24099;47.102;15.440;2023-12-22T10:49:26;0.63;;;0.60;;
3667;SDS011;24099;47.102;15.440;2023-12-22T10:51:54;1.65;;;0.88;;
3667;SDS011;24099;47.102;15.440;2023-12-22T10:54:21;0.73;;;0.73;;
3667;SDS011;24099;47.102;15.440;2023-12-22T10:56:50;0.82;;;0.82;;
3667;SDS011;24099;47.102;15.440;2023-12-22T10:59:18;3.17;;;1.48;;
3667;SDS011;24099;47.102;15.440;2023-12-22T11:01:52;2.28;;;0.90;;
3667;SDS011;24099;47.102;15.440;2023-12-22T11:04:20;0.98;;;0.77;;
3667;SDS011;24099;47.102;15.440;2023-12-22T11:06:49;1.85;;;1.17;;
3667;SDS011;24099;47.102;15.440;2023-12-22T11:09:18;1.05;;;0.98;;
3667;SDS011;24099;47.102;15.440;2023-12-22T11:11:51;0.93;;;0.75;;
3667;SDS011;24099;47.102;15.440;2023-12-22T11:14:21;0.93;;;0.73;;
3667;SDS011;24099;47.102;15.440;2023-12-22T11:16:50;1.02;;;0.70;;
3667;SDS011;24099;47.102;15.440;2023-12-22T11:19:20;1.08;;;0.55;;
3667;SDS011;24099;47.102;15.440;2023-12-22T11:21:49;0.70;;;0.60;;
3667;SDS011;24099;47.102;15.440;2023-12-22T11:24:18;0.50;;;0.50;;
3667;SDS011;24099;47.102;15.440;2023-12-22T11:26:47;2.00;;;0.80;;
3667;SDS011;24099;47.102;15.440;2023-12-22T11:29:20;0.50;;;0.50;;
3667;SDS011;24099;47.102;15.440;2023-12-22T11:31:50;0.70;;;0.65;;
3667;SDS011;24099;47.102;15.440;2023-12-22T11:34:21;0.93;;;0.50;;
3667;SDS011;24099;47.102;15.440;2023-12-22T11:36:50;0.98;;;0.50;;
3667;SDS011;24099;47.102;15.440;2023-12-22T11:39:18;1.00;;;0.88;;
3667;SDS011;24099;47.102;15.440;2023-12-22T11:41:46;1.02;;;0.60;;
3667;SDS011;24099;47.102;15.440;2023-12-22T11:44:18;0.50;;;0.50;;
3667;SDS011;24099;47.102;15.440;2023-12-22T11:46:46;0.57;;;0.57;;
3667;SDS011;24099;47.102;15.440;2023-12-22T11:49:14;0.60;;;0.60;;
3667;SDS011;24099;47.102;15.440;2023-12-22T11:51:41;0.73;;;0.60;;
3667;SDS011;24099;47.102;15.440;2023-12-22T11:57:06;15.68;;;5.88;;
3667;SDS011;24099;47.102;15.440;2023-12-22T12:00:04;14.05;;;6.13;;
3667;SDS011;24099;47.102;15.440;2023-12-22T12:02:37;53.45;;;19.30;;
3667;SDS011;24099;47.102;15.440;2023-12-22T12:05:07;23.75;;;9.32;;
3667;SDS011;24099;47.102;15.440;2023-12-22T12:07:42;12.90;;;6.32;;
3667;SDS011;24099;47.102;15.440;2023-12-22T12:10:11;12.93;;;6.15;;
3667;SDS011;24099;47.102;15.440;2023-12-22T12:12:40;8.13;;;3.05;;
3667;SDS011;24099;47.102;15.440;2023-12-22T12:15:10;4.88;;;1.83;;
3667;SDS011;24099;47.102;15.440;2023-12-22T12:17:43;2.67;;;1.08;;
3667;SDS011;24099;47.102;15.440;2023-12-22T12:20:10;0.65;;;0.65;;
3667;SDS011;24099;47.102;15.440;2023-12-22T12:22:38;2.08;;;0.77;;
3667;SDS011;24099;47.102;15.440;2023-12-22T12:25:09;2.22;;;0.80;;
3667;SDS011;24099;47.102;15.440;2023-12-22T12:27:37;1.02;;;0.70;;
3667;SDS011;24099;47.102;15.440;2023-12-22T12:30:13;0.50;;;0.50;;
3667;SDS011;24099;47.102;15.440;2023-12-22T12:32:44;0.40;;;0.40;;
3667;SDS011;24099;47.102;15.440;2023-12-22T12:35:14;0.50;;;0.50;;
3667;SDS011;24099;47.102;15.440;2023-12-22T12:37:44;0.68;;;0.68;;
3667;SDS011;24099;47.102;15.440;2023-12-22T12:40:12;0.50;;;0.50;;
3667;SDS011;24099;47.102;15.440;2023-12-22T12:42:44;0.50;;;0.40;;
3667;SDS011;24099;47.102;15.440;2023-12-22T12:45:13;0.43;;;0.43;;
3667;SDS011;24099;47.102;15.440;2023-12-22T12:47:40;0.75;;;0.35;;
3667;SDS011;24099;47.102;15.440;2023-12-22T12:50:08;0.20;;;0.20;;
3667;SDS011;24099;47.102;15.440;2023-12-22T12:52:36;0.30;;;0.30;;
3667;SDS011;24099;47.102;15.440;2023-12-22T12:55:04;0.70;;;0.47;;
3667;SDS011;24099;47.102;15.440;2023-12-22T12:57:32;1.67;;;0.80;;
3667;SDS011;24099;47.102;15.440;2023-12-22T13:00:00;0.88;;;0.70;;
3667;SDS011;24099;47.102;15.440;2023-12-22T13:02:29;1.08;;;0.63;;
3667;SDS011;24099;47.102;15.440;2023-12-22T13:05:01;1.00;;;0.73;;
3667;SDS011;24099;47.102;15.440;2023-12-22T13:07:29;0.60;;;0.60;;
3667;SDS011;24099;47.102;15.440;2023-12-22T13:09:57;0.28;;;0.28;;
3667;SDS011;24099;47.102;15.440;2023-12-22T13:12:24;0.85;;;0.63;;
3667;SDS011;24099;47.102;15.440;2023-12-22T13:14:53;1.13;;;0.70;;
3667;SDS011;24099;47.102;15.440;2023-12-22T13:17:21;0.88;;;0.57;;
3667;SDS011;24099;47.102;15.440;2023-12-22T13:19:50;2.08;;;0.60;;
3667;SDS011;24099;47.102;15.440;2023-12-22T13:22:18;0.52;;;0.52;;
3667;SDS011;24099;47.102;15.440;2023-12-22T13:24:54;0.57;;;0.50;;
3667;SDS011;24099;47.102;15.440;2023-12-22T13:27:22;2.08;;;0.45;;
3667;SDS011;24099;47.102;15.440;2023-12-22T13:29:50;0.40;;;0.40;;
3667;SDS011;24099;47.102;15.440;2023-12-22T13:32:19;0.75;;;0.52;;
3667;SDS011;24099;47.102;15.440;2023-12-22T13:34:51;0.85;;;0.60;;
3667;SDS011;24099;47.102;15.440;2023-12-22T13:37:19;0.50;;;0.50;;
3667;SDS011;24099;47.102;15.440;2023-12-22T13:39:47;0.68;;;0.65;;
3667;SDS011;24099;47.102;15.440;2023-12-22T13:42:16;1.08;;;0.55;;
3667;SDS011;24099;47.102;15.440;2023-12-22T13:44:45;1.33;;;0.55;;
3667;SDS011;24099;47.102;15.440;2023-12-22T13:47:14;0.70;;;0.65;;
3667;SDS011;24099;47.102;15.440;2023-12-22T13:49:42;1.80;;;1.33;;
3667;SDS011;24099;47.102;15.440;2023-12-22T13:52:31;7.03;;;1.30;;
3667;SDS011;24099;47.102;15.440;2023-12-22T13:55:00;1.38;;;1.27;;
3667;SDS011;24099;47.102;15.440;2023-12-22T13:57:28;1.30;;;1.08;;
3667;SDS011;24099;47.102;15.440;2023-12-22T13:59:55;0.63;;;0.60;;
3667;SDS011;24099;47.102;15.440;2023-12-22T14:02:23;0.50;;;0.50;;
3667;SDS011;24099;47.102;15.440;2023-12-22T14:04:50;0.57;;;0.57;;
3667;SDS011;24099;47.102;15.440;2023-12-22T14:07:18;0.40;;;0.40;;
3667;SDS011;24099;47.102;15.440;2023-12-22T14:09:47;0.68;;;0.65;;
3667;SDS011;24099;47.102;15.440;2023-12-22T14:12:14;1.10;;;0.70;;
3667;SDS011;24099;47.102;15.440;2023-12-22T14:14:43;1.00;;;0.90;;
3667;SDS011;24099;47.102;15.440;2023-12-22T14:17:13;5.07;;;1.73;;
3667;SDS011;24099;47.102;15.440;2023-12-22T14:19:41;2.38;;;1.45;;
3667;SDS011;24099;47.102;15.440;2023-12-22T14:22:08;1.55;;;1.40;;
3667;SDS011;24099;47.102;15.440;2023-12-22T14:24:36;2.00;;;0.93;;
3667;SDS011;24099;47.102;15.440;2023-12-22T14:27:05;0.77;;;0.77;;
3667;SDS011;24099;47.102;15.440;2023-12-22T14:29:32;0.60;;;0.60;;
3667;SDS011;24099;47.102;15.440;2023-12-22T14:32:01;1.75;;;0.38;;
3667;SDS011;24099;47.102;15.440;2023-12-22T14:34:30;0.40;;;0.40;;
3667;SDS011;24099;47.102;15.440;2023-12-22T14:36:58;0.40;;;0.40;;
3667;SDS011;24099;47.102;15.440;2023-12-22T14:39:26;0.30;;;0.30;;
3667;SDS011;24099;47.102;15.440;2023-12-22T14:41:54;0.50;;;0.50;;
3667;SDS011;24099;47.102;15.440;2023-12-22T14:44:22;0.65;;;0.32;;
3667;SDS011;24099;47.102;15.440;2023-12-22T14:46:50;0.40;;;0.40;;
3667;SDS011;24099;47.102;15.440;2023-12-22T14:49:17;1.20;;;0.45;;
3667;SDS011;24099;47.102;15.440;2023-12-22T14:51:45;0.95;;;0.68;;
3667;SDS011;24099;47.102;15.440;2023-12-22T14:54:16;0.50;;;0.50;;
3667;SDS011;24099;47.102;15.440;2023-12-22T14:56:44;1.20;;;0.85;;
3667;SDS011;24099;47.102;15.440;2023-12-22T14:59:12;0.57;;;0.57;;
3667;SDS011;24099;47.102;15.440;2023-12-22T15:01:41;0.50;;;0.50;;
3667;SDS011;24099;47.102;15.440;2023-12-22T15:04:08;0.30;;;0.30;;